createdAt,value
2022-08-05T00:03:47.115Z,67.93
2022-08-05T00:07:59.970Z,67.85
2022-08-05T00:12:04.220Z,68.06
2022-08-05T00:16:12.938Z,68.14
2022-08-05T00:20:15.605Z,68.29
2022-08-05T00:24:24.831Z,69.01
2022-08-05T00:28:33.375Z,69.20
2022-08-05T00:32:36.289Z,69.11
2022-08-05T00:37:11.882Z,69.29
2022-08-05T00:41:01.111Z,69.28
2022-08-05T00:45:05.450Z,69.43
2022-08-05T00:49:14.056Z,69.57
2022-08-05T00:54:00.680Z,69.89
2022-08-05T00:57:55.468Z,70.24
2022-08-05T01:02:01.001Z,70.67
2022-08-05T01:06:05.354Z,71.05
2022-08-05T01:10:10.989Z,71.25
2022-08-05T01:14:32.592Z,71.11
2022-08-05T01:18:42.467Z,71.55
2022-08-05T01:23:14.964Z,71.67
2022-08-05T01:27:50.779Z,71.31
2022-08-05T01:32:02.407Z,71.15
2022-08-05T01:36:16.227Z,71.27
2022-08-05T01:40:21.311Z,71.24
2022-08-05T01:44:34.474Z,71.51
2022-08-05T01:48:39.317Z,71.78
2022-08-05T01:52:49.612Z,71.83
2022-08-05T01:58:11.254Z,71.57
2022-08-05T02:01:23.328Z,71.83
2022-08-05T02:05:34.301Z,72.07
2022-08-05T02:09:38.407Z,72.05
2022-08-05T02:13:53.622Z,72.10
2022-08-05T02:18:31.485Z,72.21
2022-08-05T02:22:41.713Z,72.21
2022-08-05T02:26:56.149Z,72.09
2022-08-05T02:31:01.999Z,72.03
2022-08-05T02:35:14.305Z,71.76
2022-08-05T02:39:22.976Z,71.78
2022-08-05T02:43:27.354Z,72.06
2022-08-05T02:47:58.713Z,72.16
2022-08-05T02:52:03.012Z,72.05
2022-08-05T02:56:09.276Z,72.20
2022-08-05T03:00:12.926Z,72.22
2022-08-05T03:04:15.771Z,72.16
2022-08-05T03:08:27.106Z,72.17
2022-08-05T03:12:34.276Z,72.33
2022-08-05T03:16:37.019Z,72.43
2022-08-05T03:20:44.573Z,72.65
2022-08-05T03:24:52.153Z,72.59
2022-08-05T03:28:55.087Z,72.68
2022-08-05T03:32:59.730Z,72.77
2022-08-05T03:37:05.110Z,72.89
2022-08-05T03:41:10.802Z,73.19
2022-08-05T03:45:21.517Z,73.26
2022-08-05T03:49:31.028Z,73.23
2022-08-05T03:54:59.343Z,73.27
2022-08-05T03:59:01.266Z,73.44
2022-08-05T04:03:06.418Z,73.62
2022-08-05T04:07:10.101Z,73.81
2022-08-05T04:11:12.405Z,73.62
2022-08-05T04:15:15.512Z,73.63
2022-08-05T04:19:19.114Z,73.48
2022-08-05T04:24:04.861Z,73.27
2022-08-05T04:27:57.275Z,73.19
2022-08-05T04:32:00.700Z,72.62
2022-08-05T04:36:11.403Z,72.49
2022-08-05T04:40:25.546Z,71.95
2022-08-05T04:44:29.609Z,70.72
2022-08-05T04:48:33.249Z,69.89
2022-08-05T04:52:35.496Z,69.45
2022-08-05T04:56:37.749Z,68.72
2022-08-05T05:00:40.746Z,67.78
2022-08-05T05:04:47.568Z,67.73
2022-08-05T05:08:50.934Z,67.73
2022-08-05T05:12:53.105Z,67.02
2022-08-05T05:16:55.498Z,66.27
2022-08-05T05:20:58.544Z,65.81
2022-08-05T05:25:01.323Z,65.19
2022-08-05T05:29:18.310Z,64.31
2022-08-05T05:33:23.281Z,64.26
2022-08-05T05:37:37.207Z,63.65
2022-08-05T05:41:54.152Z,63.06
2022-08-05T05:45:56.769Z,62.38
2022-08-05T05:50:01.458Z,62.12
2022-08-05T05:54:04.032Z,61.41
2022-08-05T05:58:06.246Z,61.40
2022-08-05T06:02:08.434Z,61.40
2022-08-05T06:06:11.838Z,61.26
2022-08-05T06:10:14.062Z,60.90
2022-08-05T06:14:17.806Z,61.13
2022-08-05T06:18:21.151Z,60.56
2022-08-05T06:22:35.247Z,60.42
2022-08-05T06:26:38.118Z,60.59
2022-08-05T06:30:40.244Z,60.65
2022-08-05T06:34:43.748Z,60.23
2022-08-05T06:38:53.319Z,60.24
2022-08-05T06:42:55.492Z,60.04
2022-08-05T06:46:58.014Z,59.67
2022-08-05T06:51:09.442Z,59.34
2022-08-05T06:55:12.487Z,59.07
2022-08-05T06:59:18.114Z,58.74
2022-08-05T07:03:20.237Z,58.73
2022-08-05T07:07:35.531Z,58.23
2022-08-05T07:11:49.561Z,58.17
2022-08-05T07:16:12.421Z,57.66
2022-08-05T07:20:38.890Z,57.40
2022-08-05T07:24:44.038Z,57.45
2022-08-05T07:28:55.069Z,56.84
2022-08-05T07:32:57.514Z,56.27
2022-08-05T07:37:01.041Z,55.88
2022-08-05T07:42:09.069Z,55.52
2022-08-05T07:45:43.381Z,55.44
2022-08-05T07:49:54.448Z,54.99
2022-08-05T07:53:56.935Z,54.46
2022-08-05T07:58:03.100Z,53.39
2022-08-05T08:02:07.387Z,53.11
2022-08-05T08:06:18.715Z,52.53
2022-08-05T08:10:22.300Z,51.40
2022-08-05T08:14:24.492Z,50.74
2022-08-05T08:18:26.720Z,50.03
2022-08-05T08:22:30.145Z,49.58
2022-08-05T08:26:34.371Z,48.49
2022-08-05T08:30:47.552Z,47.30
2022-08-05T08:34:51.862Z,47.45
2022-08-05T08:38:55.077Z,46.62
2022-08-05T08:42:58.257Z,46.31
2022-08-05T08:48:06.804Z,45.83
2022-08-05T08:52:03.695Z,45.89
2022-08-05T08:56:08.983Z,45.48
2022-08-05T09:01:00.122Z,44.54
2022-08-05T09:05:18.421Z,45.02
2022-08-05T09:09:41.745Z,43.85
2022-08-05T09:14:09.436Z,43.55
2022-08-05T09:18:09.233Z,43.32
2022-08-05T09:22:30.808Z,43.29
2022-08-05T09:26:34.917Z,43.15
2022-08-05T09:30:43.731Z,42.67
2022-08-05T09:34:54.669Z,43.04
2022-08-05T09:38:59.567Z,42.38
2022-08-05T09:43:06.210Z,42.06
2022-08-05T09:47:20.578Z,42.44
2022-08-05T09:51:36.611Z,41.64
2022-08-05T09:55:58.237Z,40.94
2022-08-05T10:00:24.620Z,41.94
2022-08-05T10:04:38.455Z,42.23
2022-08-05T10:08:42.353Z,41.66
2022-08-05T10:12:53.023Z,41.85
2022-08-05T10:16:58.453Z,42.61
2022-08-05T10:21:06.164Z,42.51
2022-08-05T10:25:11.177Z,42.63
2022-08-05T10:29:23.604Z,42.02
2022-08-05T10:33:42.965Z,41.59
2022-08-05T10:37:47.484Z,40.82
2022-08-05T10:42:33.970Z,40.51
2022-08-05T10:47:10.156Z,40.87
2022-08-05T10:51:48.663Z,41.31
2022-08-05T10:56:27.052Z,40.67
2022-08-05T11:00:29.867Z,40.68
2022-08-05T11:04:44.596Z,40.95
2022-08-05T11:09:16.560Z,40.22
2022-08-05T11:13:40.446Z,40.33
2022-08-05T11:18:30.190Z,40.58
2022-08-05T11:22:53.918Z,40.51
2022-08-05T11:27:45.825Z,40.86
2022-08-05T11:32:29.801Z,41.25
2022-08-05T11:36:52.855Z,40.93
2022-08-05T11:41:00.414Z,40.58
2022-08-05T11:46:27.153Z,40.89
2022-08-05T11:50:14.362Z,41.08
2022-08-05T11:54:48.463Z,41.08
2022-08-05T11:58:58.694Z,40.93
2022-08-05T12:03:16.349Z,40.64
2022-08-05T12:08:08.807Z,40.02
2022-08-05T12:12:21.559Z,40.45
2022-08-05T12:16:27.325Z,40.27
2022-08-05T12:20:40.718Z,40.24
2022-08-05T12:24:49.462Z,40.15
2022-08-05T12:28:59.302Z,39.97
2022-08-05T12:33:07.544Z,39.45
2022-08-05T12:37:29.964Z,39.25
2022-08-05T12:41:43.671Z,38.92
2022-08-05T12:45:52.524Z,38.45
2022-08-05T12:50:04.463Z,37.54
2022-08-05T12:54:16.802Z,37.90
2022-08-05T12:58:50.934Z,37.69
2022-08-05T13:02:55.679Z,37.43
2022-08-05T13:07:47.495Z,37.20
2022-08-05T13:12:01.198Z,37.14
2022-08-05T13:16:16.686Z,37.21
2022-08-05T13:20:24.085Z,36.62
2022-08-05T13:24:51.358Z,36.35
2022-08-05T13:28:50.039Z,36.29
2022-08-05T13:33:01.113Z,36.12
2022-08-05T13:37:04.088Z,35.86
2022-08-05T13:41:25.708Z,35.80
2022-08-05T13:45:43.181Z,35.65
2022-08-05T13:49:50.648Z,35.55
2022-08-05T13:53:56.397Z,35.16
2022-08-05T13:58:01.022Z,35.39
2022-08-05T14:02:10.458Z,35.66
2022-08-05T14:06:25.816Z,35.63
2022-08-05T14:10:45.817Z,35.03
2022-08-05T14:14:51.387Z,34.94
2022-08-05T14:18:54.013Z,34.98
2022-08-05T14:22:59.460Z,34.42
2022-08-05T14:27:17.829Z,34.44
2022-08-05T14:32:03.726Z,33.91
2022-08-05T14:36:05.722Z,33.97
2022-08-05T14:40:14.162Z,33.73
2022-08-05T14:44:21.907Z,33.84
2022-08-05T14:48:33.317Z,33.65
2022-08-05T14:52:53.139Z,33.53
2022-08-05T14:57:05.144Z,33.28
2022-08-05T15:01:15.964Z,33.54
2022-08-05T15:05:20.607Z,33.50
2022-08-05T15:09:51.657Z,33.50
2022-08-05T15:13:50.356Z,33.37
2022-08-05T15:17:54.182Z,32.40
2022-08-05T15:22:02.677Z,32.58
2022-08-05T15:26:05.306Z,33.21
2022-08-05T15:30:14.213Z,33.53
2022-08-05T15:34:32.096Z,33.64
2022-08-05T15:38:41.852Z,33.64
2022-08-05T15:42:54.884Z,34.04
2022-08-05T15:47:12.579Z,33.66
2022-08-05T15:52:09.909Z,33.78
2022-08-05T15:56:14.377Z,33.70
2022-08-05T16:00:26.304Z,33.66
2022-08-05T16:04:42.347Z,33.76
2022-08-05T16:08:45.722Z,33.69
2022-08-05T16:12:57.039Z,33.82
2022-08-05T17:18:26.238Z,36.75
2022-08-05T18:12:40.943Z,43.11
2022-08-05T18:18:00.394Z,43.92
2022-08-05T18:23:56.609Z,44.88
2022-08-05T18:27:21.163Z,45.59
2022-08-05T18:32:17.670Z,46.07
2022-08-05T18:37:34.291Z,46.65
2022-08-05T18:42:11.893Z,47.50
2022-08-05T18:46:45.316Z,48.08
2022-08-05T18:52:04.358Z,48.59
2022-08-05T18:56:54.466Z,49.28
2022-08-05T19:02:26.667Z,49.63
2022-08-05T19:06:53.754Z,50.21
2022-08-05T20:03:11.019Z,54.69
2022-08-05T20:07:47.835Z,55.01
2022-08-05T20:13:58.241Z,55.22
